Terminal Aerodrome Forecast
Issued by NWS Portland, OR

Home | Current Version | Previous Version | Text Only | Print | Product List | Glossary On
Versions: 1 2 3 4 5 6 7 8 9 10 11 12 13
000
FTUS46 KPQR 201730
TAFEUG
TAF
KEUG 201730Z 2018/2118 36012G18KT P6SM SCT250
     FM202200 01015G25KT P6SM SCT250
     FM210500 VRB04KT P6SM SKC
     FM211400 01005KT P6SM SKC=

USA.gov is the U.S. government's official web portal to all federal, state and local government web resources and services.